createdAt,value
2023-04-04T00:00:50.976Z,10.50
2023-04-04T00:06:07.797Z,6.70
2023-04-04T00:11:11.437Z,8.40
2023-04-04T00:16:15.097Z,9.50
2023-04-04T00:21:28.718Z,6.20
2023-04-04T00:27:01.342Z,6.40
2023-04-04T00:32:14.910Z,8.40
2023-04-04T00:37:18.341Z,4.80
2023-04-04T00:42:22.448Z,7.10
2023-04-04T00:47:37.906Z,6.90
2023-04-04T00:52:41.426Z,6.10
2023-04-04T00:57:55.343Z,8.30
2023-04-04T01:02:59.481Z,8.70
2023-04-04T01:08:02.839Z,6.50
2023-04-04T01:13:06.863Z,6.00
2023-04-04T01:18:14.590Z,5.70
2023-04-04T01:23:18.671Z,7.80
2023-04-04T01:28:26.218Z,9.80
2023-04-04T01:33:37.750Z,8.90
2023-04-04T01:39:15.610Z,8.20
2023-04-04T01:44:19.417Z,10.90
2023-04-04T01:49:25.903Z,6.10
2023-04-04T01:54:36.059Z,8.10
2023-04-04T01:59:39.649Z,8.30
2023-04-04T02:04:46.514Z,6.50
2023-04-04T02:09:53.559Z,6.80
2023-04-04T02:15:00.524Z,10.00
2023-04-04T02:20:07.779Z,10.50
2023-04-04T02:25:11.150Z,10.00
2023-04-04T02:30:19.982Z,9.20
2023-04-04T02:35:26.194Z,6.70
2023-04-04T02:40:29.823Z,8.30
2023-04-04T02:45:36.376Z,8.50
2023-04-04T02:50:48.155Z,8.20
2023-04-04T02:55:51.843Z,15.10
2023-04-04T03:00:55.997Z,13.10
2023-04-04T03:06:03.357Z,14.40
2023-04-04T03:11:06.926Z,11.80
2023-04-04T03:16:16.551Z,9.60
2023-04-04T03:21:23.952Z,8.90
2023-04-04T03:26:32.577Z,11.30
2023-04-04T03:31:39.372Z,8.20
2023-04-04T03:37:00.708Z,10.20
2023-04-04T03:42:04.354Z,9.00
2023-04-04T03:47:12.408Z,14.30
2023-04-04T03:52:15.940Z,11.40
2023-04-04T03:57:19.862Z,10.90
2023-04-04T04:02:23.373Z,13.30
2023-04-04T04:07:31.200Z,9.60
2023-04-04T04:12:34.748Z,13.30
2023-04-04T04:17:42.254Z,13.90
2023-04-04T04:22:47.624Z,19.20
2023-04-04T04:27:55.576Z,19.10
2023-04-04T04:33:02.255Z,13.20
2023-04-04T04:38:11.018Z,16.10
2023-04-04T04:43:15.269Z,16.60
2023-04-04T04:48:18.992Z,10.90
2023-04-04T04:53:42.653Z,12.10
2023-04-04T04:59:19.251Z,13.00
2023-04-04T05:04:23.550Z,16.20
2023-04-04T05:09:52.710Z,21.30
2023-04-04T05:14:58.405Z,19.10
2023-04-04T05:20:02.629Z,16.70
2023-04-04T05:25:06.814Z,11.50
2023-04-04T05:30:11.738Z,11.60
2023-04-04T05:40:32.835Z,10.30
2023-04-04T05:45:49.767Z,10.40
2023-04-04T05:51:06.567Z,10.40
2023-04-04T05:56:20.093Z,13.70
2023-04-04T06:01:26.898Z,10.10
2023-04-04T06:06:35.826Z,10.60
2023-04-04T06:11:40.089Z,8.10
2023-04-04T06:17:07.805Z,8.20
2023-04-04T06:22:11.743Z,6.40
2023-04-04T06:27:22.500Z,7.50
2023-04-04T06:32:40.057Z,11.70
2023-04-04T06:38:17.067Z,7.80
2023-04-04T06:43:43.924Z,9.60
2023-04-04T06:48:47.765Z,10.60
2023-04-04T06:53:53.678Z,8.90
2023-04-04T06:58:59.570Z,8.60
2023-04-04T07:04:03.747Z,9.90
2023-04-04T07:09:12.796Z,8.10
2023-04-04T07:15:01.506Z,9.50
2023-04-04T07:20:19.424Z,11.40
2023-04-04T07:25:23.176Z,8.60
2023-04-04T07:30:46.868Z,9.80
2023-04-04T07:35:50.449Z,9.10
2023-04-04T07:40:59.625Z,13.60
2023-04-04T07:46:24.626Z,8.00
2023-04-04T07:51:54.823Z,9.20
2023-04-04T07:56:58.296Z,10.50
2023-04-04T08:02:07.435Z,11.70
2023-04-04T08:07:13.932Z,7.40
2023-04-04T08:12:57.862Z,9.40
2023-04-04T08:23:55.940Z,11.40
2023-04-04T08:30:05.727Z,7.30
2023-04-04T08:35:43.767Z,7.20
2023-04-04T08:40:48.106Z,7.20
2023-04-04T08:46:10.083Z,7.50
2023-04-04T08:51:31.980Z,8.60
2023-04-04T08:56:56.357Z,13.30
2023-04-04T09:02:12.163Z,7.10
2023-04-04T09:07:56.675Z,8.00
2023-04-04T09:13:15.502Z,7.10
2023-04-04T09:18:20.209Z,9.10
2023-04-04T09:23:26.475Z,10.40
2023-04-04T09:28:29.881Z,6.80
2023-04-04T09:33:34.424Z,11.30
2023-04-04T09:38:41.064Z,7.40
2023-04-04T09:43:49.455Z,7.70
2023-04-04T09:49:00.387Z,11.10
2023-04-04T09:54:18.792Z,4.80
2023-04-04T10:05:05.648Z,6.30
2023-04-04T10:10:33.207Z,5.00
2023-04-04T10:15:39.229Z,6.90
2023-04-04T10:20:43.663Z,7.00
2023-04-04T10:25:50.608Z,7.40
2023-04-04T10:31:26.086Z,6.20
2023-04-04T10:36:36.643Z,6.40
2023-04-04T10:41:46.185Z,5.50
2023-04-04T10:46:53.846Z,11.60
2023-04-04T10:52:24.676Z,9.70
2023-04-04T10:58:04.784Z,8.90
2023-04-04T11:03:28.521Z,5.20
2023-04-04T11:08:43.115Z,5.00
2023-04-04T11:14:08.457Z,4.10
2023-04-04T11:19:20.792Z,7.10
2023-04-04T11:24:28.322Z,7.10
2023-04-04T11:30:13.626Z,13.10
2023-04-04T11:35:27.207Z,5.00
2023-04-04T11:41:02.492Z,4.20
2023-04-04T11:47:17.801Z,9.90
2023-04-04T11:53:24.208Z,12.60
2023-04-04T11:59:28.180Z,8.40
2023-04-04T12:04:32.062Z,7.40
2023-04-04T12:09:48.431Z,7.60
2023-04-04T12:15:06.226Z,3.50
2023-04-04T12:20:35.001Z,4.20
2023-04-04T12:25:44.403Z,4.50
2023-04-04T12:30:48.164Z,5.10
2023-04-04T12:35:55.455Z,5.40
2023-04-04T12:41:09.513Z,6.10
2023-04-04T12:46:18.311Z,6.10
2023-04-04T12:51:51.589Z,4.70
2023-04-04T12:57:22.641Z,6.60
2023-04-04T13:03:16.641Z,4.70
2023-04-04T13:08:20.841Z,5.80
2023-04-04T13:18:59.909Z,4.80
2023-04-04T13:24:26.419Z,8.00
2023-04-04T13:29:53.200Z,7.40
2023-04-04T13:35:02.858Z,7.90
2023-04-04T13:40:58.288Z,6.30
2023-04-04T13:46:22.041Z,3.50
2023-04-04T13:51:31.225Z,7.20
2023-04-04T13:57:06.948Z,4.20
2023-04-04T14:02:30.739Z,4.80
2023-04-04T14:08:01.326Z,7.60
2023-04-04T14:13:04.912Z,4.40
2023-04-04T14:18:08.291Z,4.40
2023-04-04T14:23:14.627Z,5.40
2023-04-04T14:28:18.317Z,4.00
2023-04-04T14:33:22.412Z,4.90
2023-04-04T14:38:26.038Z,6.10
2023-04-04T14:43:43.476Z,5.80
2023-04-04T14:49:00.733Z,6.90
2023-04-04T14:54:04.594Z,5.00
2023-04-04T14:59:20.364Z,5.50
2023-04-04T15:04:48.692Z,5.80
2023-04-04T15:09:52.333Z,5.30
2023-04-04T15:14:56.123Z,6.00
2023-04-04T15:20:29.405Z,4.90
2023-04-04T15:25:38.964Z,6.70
2023-04-04T15:31:02.654Z,5.20
2023-04-04T15:36:16.329Z,7.20
2023-04-04T15:41:30.108Z,6.90
2023-04-04T15:46:46.939Z,6.40
2023-04-04T15:52:30.950Z,4.80
2023-04-04T15:57:36.728Z,8.20
2023-04-04T16:03:24.012Z,4.00
2023-04-04T16:08:43.180Z,4.80
2023-04-04T16:14:30.241Z,8.60
2023-04-04T16:20:15.275Z,6.60
2023-04-04T16:25:43.499Z,7.00
2023-04-04T16:30:47.016Z,8.40
2023-04-04T16:36:00.920Z,9.50
2023-04-04T16:41:14.368Z,7.50
2023-04-04T16:46:51.085Z,6.20
2023-04-04T16:52:10.872Z,9.00
2023-04-04T16:57:34.532Z,11.80
2023-04-04T17:02:45.820Z,8.60
2023-04-04T17:08:19.394Z,11.70
2023-04-04T17:13:46.135Z,8.60
2023-04-04T17:18:49.919Z,10.10
2023-04-04T17:23:53.560Z,11.70
2023-04-04T17:29:20.833Z,16.10
2023-04-04T17:34:27.926Z,10.80
2023-04-04T17:39:51.766Z,8.60
2023-04-04T17:45:20.374Z,9.90
2023-04-04T17:51:06.187Z,13.80
2023-04-04T17:56:31.562Z,16.50
2023-04-04T18:02:04.790Z,14.40
2023-04-04T18:07:28.988Z,23.20
2023-04-04T18:12:44.554Z,20.60
2023-04-04T18:17:47.880Z,34.10
2023-04-04T18:22:52.785Z,21.60
2023-04-04T18:27:56.234Z,17.80
2023-04-04T18:32:59.748Z,31.80
2023-04-04T18:38:03.222Z,15.60
2023-04-04T18:43:07.044Z,16.40
2023-04-04T18:48:12.770Z,12.90
2023-04-04T18:53:16.359Z,15.70
2023-04-04T18:58:20.195Z,12.70
2023-04-04T19:03:25.155Z,10.60
2023-04-04T19:08:32.079Z,15.30
2023-04-04T19:13:40.396Z,17.20
2023-04-04T19:18:44.417Z,15.70
2023-04-04T19:23:47.974Z,18.90
2023-04-04T19:28:54.608Z,18.40
2023-04-04T19:33:59.139Z,29.40
2023-04-04T19:39:31.132Z,27.50
2023-04-04T19:44:41.476Z,24.90
2023-04-04T19:49:52.873Z,23.90
2023-04-04T19:55:53.852Z,27.90
2023-04-04T20:01:00.453Z,26.80
2023-04-04T20:06:23.648Z,27.40
2023-04-04T20:11:33.034Z,34.60
2023-04-04T20:16:40.542Z,40.30
2023-04-04T20:22:46.918Z,36.30
2023-04-04T20:28:22.923Z,35.40
2023-04-04T20:33:36.823Z,35.70
2023-04-04T20:38:50.751Z,37.30
2023-04-04T20:44:19.563Z,35.60
2023-04-04T20:49:25.980Z,37.40
2023-04-04T20:54:49.560Z,40.90
2023-04-04T20:59:53.239Z,44.70
2023-04-04T21:04:56.754Z,46.40
2023-04-04T21:10:01.494Z,53.90
2023-04-04T21:15:10.833Z,48.10
2023-04-04T21:20:53.803Z,47.40
2023-04-04T21:25:59.011Z,46.50
2023-04-04T21:31:17.375Z,43.50
2023-04-04T21:36:32.794Z,47.10
2023-04-04T21:41:36.241Z,45.80
2023-04-04T21:46:41.741Z,46.60
2023-04-04T21:51:45.587Z,46.30
2023-04-04T21:56:48.801Z,42.50
2023-04-04T22:01:51.991Z,45.60
2023-04-04T22:06:55.544Z,45.60
2023-04-04T22:11:59.237Z,51.90
2023-04-04T22:17:05.574Z,53.00
2023-04-04T22:22:09.628Z,55.10
2023-04-04T22:27:22.184Z,56.20
2023-04-04T22:32:26.388Z,53.50
2023-04-04T22:37:30.770Z,56.10
2023-04-04T22:42:36.591Z,55.80
2023-04-04T22:48:20.548Z,60.50
2023-04-04T22:53:44.588Z,62.90
2023-04-04T22:58:51.142Z,57.40
2023-04-04T23:03:54.514Z,55.70
2023-04-04T23:09:08.434Z,54.60
2023-04-04T23:14:22.939Z,54.20
2023-04-04T23:19:39.959Z,54.30
2023-04-04T23:24:44.803Z,56.80
2023-04-04T23:29:50.897Z,59.10
2023-04-04T23:35:04.545Z,55.50
2023-04-04T23:40:09.074Z,55.20
2023-04-04T23:45:13.287Z,59.30
2023-04-04T23:50:17.343Z,60.70
2023-04-04T23:55:21.014Z,59.80
